Fargo, North Dakota
Current Conditions -  °F | °C
As of 9:53 PM on Friday 24 Oct 2014 (Local Time) from KFAR Reporting Station
Clear Clear  
Wind Chill: 12°   Ceiling: Unl
Heat Index: 12°   Visibility: 10mi
Dew Point:   Wind: 8mph
Humidity: 47%   Direction: 260°W
Pressure: 29.9"   Gusts: NA
Location:  46.88°N, 96.78°W
Report Text: KFAR 250253Z 26007KT 10SM CLR 12/01 A2990 RMK AO2 SLP131 T01170006 53021
Loading
Personal Weather Stations






























Interactive Weather Map New forecast layout! Learn more

10-Day Weather Forecast

Advertisements
Track Severe Weather on mobile